sensor_id;sensor_type;location;lat;lon;timestamp;temperature;humidity
12907;DHT22;6521;50.498;8.474;2022-08-20T00:01:18;20.24;66.15
12907;DHT22;6521;50.498;8.474;2022-08-20T00:03:49;20.20;66.26
12907;DHT22;6521;50.498;8.474;2022-08-20T00:06:22;20.20;66.29
12907;DHT22;6521;50.498;8.474;2022-08-20T00:08:52;20.18;66.32
12907;DHT22;6521;50.498;8.474;2022-08-20T00:11:25;20.14;66.52
12907;DHT22;6521;50.498;8.474;2022-08-20T00:13:58;20.13;66.65
12907;DHT22;6521;50.498;8.474;2022-08-20T00:16:32;20.08;66.68
12907;DHT22;6521;50.498;8.474;2022-08-20T00:19:06;20.11;66.67
12907;DHT22;6521;50.498;8.474;2022-08-20T00:21:38;20.07;67.08
12907;DHT22;6521;50.498;8.474;2022-08-20T00:24:09;20.04;67.19
12907;DHT22;6521;50.498;8.474;2022-08-20T00:26:40;20.01;67.24
12907;DHT22;6521;50.498;8.474;2022-08-20T00:29:10;20.00;67.44
12907;DHT22;6521;50.498;8.474;2022-08-20T00:31:41;20.00;67.51
12907;DHT22;6521;50.498;8.474;2022-08-20T00:34:11;19.97;67.53
12907;DHT22;6521;50.498;8.474;2022-08-20T00:36:42;19.97;67.73
12907;DHT22;6521;50.498;8.474;2022-08-20T00:39:13;19.90;68.13
12907;DHT22;6521;50.498;8.474;2022-08-20T00:41:43;19.93;68.35
12907;DHT22;6521;50.498;8.474;2022-08-20T00:44:17;19.88;68.60
12907;DHT22;6521;50.498;8.474;2022-08-20T00:46:49;19.90;68.58
12907;DHT22;6521;50.498;8.474;2022-08-20T00:49:24;19.93;68.66
12907;DHT22;6521;50.498;8.474;2022-08-20T00:52:08;20.00;68.85
12907;DHT22;6521;50.498;8.474;2022-08-20T00:54:44;19.97;69.24
12907;DHT22;6521;50.498;8.474;2022-08-20T00:57:25;19.96;69.44
12907;DHT22;6521;50.498;8.474;2022-08-20T01:00:00;19.98;69.76
12907;DHT22;6521;50.498;8.474;2022-08-20T01:02:32;19.97;69.87
12907;DHT22;6521;50.498;8.474;2022-08-20T01:05:05;19.98;70.15
12907;DHT22;6521;50.498;8.474;2022-08-20T01:07:38;19.98;70.22
12907;DHT22;6521;50.498;8.474;2022-08-20T01:10:15;20.07;70.14
12907;DHT22;6521;50.498;8.474;2022-08-20T01:12:47;20.01;70.45
12907;DHT22;6521;50.498;8.474;2022-08-20T01:15:20;20.04;70.45
12907;DHT22;6521;50.498;8.474;2022-08-20T01:17:55;20.06;70.35
12907;DHT22;6521;50.498;8.474;2022-08-20T01:20:31;20.07;70.53
12907;DHT22;6521;50.498;8.474;2022-08-20T01:26:04;20.10;70.41
12907;DHT22;6521;50.498;8.474;2022-08-20T01:28:41;20.06;70.63
12907;DHT22;6521;50.498;8.474;2022-08-20T01:31:19;20.08;70.89
12907;DHT22;6521;50.498;8.474;2022-08-20T01:33:52;20.08;71.08
12907;DHT22;6521;50.498;8.474;2022-08-20T01:36:36;20.08;71.19
12907;DHT22;6521;50.498;8.474;2022-08-20T01:39:09;20.08;71.57
12907;DHT22;6521;50.498;8.474;2022-08-20T01:44:38;20.10;71.74
12907;DHT22;6521;50.498;8.474;2022-08-20T01:47:31;20.07;71.80
12907;DHT22;6521;50.498;8.474;2022-08-20T01:50:07;20.10;71.82
12907;DHT22;6521;50.498;8.474;2022-08-20T01:55:39;20.14;72.14
12907;DHT22;6521;50.498;8.474;2022-08-20T01:58:11;20.10;72.25
12907;DHT22;6521;50.498;8.474;2022-08-20T02:00:43;20.13;72.04
12907;DHT22;6521;50.498;8.474;2022-08-20T02:03:13;20.17;72.05
12907;DHT22;6521;50.498;8.474;2022-08-20T02:05:44;20.18;72.15
12907;DHT22;6521;50.498;8.474;2022-08-20T02:08:15;20.17;72.13
12907;DHT22;6521;50.498;8.474;2022-08-20T02:10:47;20.20;72.28
12907;DHT22;6521;50.498;8.474;2022-08-20T02:13:18;20.16;72.42
12907;DHT22;6521;50.498;8.474;2022-08-20T02:15:50;20.17;72.42
12907;DHT22;6521;50.498;8.474;2022-08-20T02:18:21;20.16;72.38
12907;DHT22;6521;50.498;8.474;2022-08-20T02:20:52;20.17;72.48
12907;DHT22;6521;50.498;8.474;2022-08-20T02:23:23;20.16;72.47
12907;DHT22;6521;50.498;8.474;2022-08-20T02:25:55;20.14;72.46
12907;DHT22;6521;50.498;8.474;2022-08-20T02:28:26;20.14;72.54
12907;DHT22;6521;50.498;8.474;2022-08-20T02:30:58;20.16;72.47
12907;DHT22;6521;50.498;8.474;2022-08-20T02:33:31;20.08;72.70
12907;DHT22;6521;50.498;8.474;2022-08-20T02:36:02;20.04;72.76
12907;DHT22;6521;50.498;8.474;2022-08-20T02:38:33;20.08;72.81
12907;DHT22;6521;50.498;8.474;2022-08-20T02:41:06;20.01;72.86
12907;DHT22;6521;50.498;8.474;2022-08-20T02:43:37;20.03;72.92
12907;DHT22;6521;50.498;8.474;2022-08-20T02:46:08;20.08;72.83
12907;DHT22;6521;50.498;8.474;2022-08-20T02:48:39;20.07;72.87
12907;DHT22;6521;50.498;8.474;2022-08-20T02:51:11;20.07;72.92
12907;DHT22;6521;50.498;8.474;2022-08-20T02:53:42;20.10;72.91
12907;DHT22;6521;50.498;8.474;2022-08-20T02:56:13;20.07;73.03
12907;DHT22;6521;50.498;8.474;2022-08-20T02:58:44;20.04;73.29
12907;DHT22;6521;50.498;8.474;2022-08-20T03:01:16;20.07;73.29
12907;DHT22;6521;50.498;8.474;2022-08-20T03:03:47;20.04;73.44
12907;DHT22;6521;50.498;8.474;2022-08-20T03:06:18;20.08;73.36
12907;DHT22;6521;50.498;8.474;2022-08-20T03:08:52;20.04;73.63
12907;DHT22;6521;50.498;8.474;2022-08-20T03:11:23;19.97;73.78
12907;DHT22;6521;50.498;8.474;2022-08-20T03:13:54;19.93;74.11
12907;DHT22;6521;50.498;8.474;2022-08-20T03:16:25;19.83;74.54
12907;DHT22;6521;50.498;8.474;2022-08-20T03:18:56;19.80;74.55
12907;DHT22;6521;50.498;8.474;2022-08-20T03:21:27;19.84;74.65
12907;DHT22;6521;50.498;8.474;2022-08-20T03:23:58;19.81;74.69
12907;DHT22;6521;50.498;8.474;2022-08-20T03:26:30;19.88;74.60
12907;DHT22;6521;50.498;8.474;2022-08-20T03:29:01;19.90;74.58
12907;DHT22;6521;50.498;8.474;2022-08-20T03:31:32;19.87;74.72
12907;DHT22;6521;50.498;8.474;2022-08-20T03:34:03;19.93;74.62
12907;DHT22;6521;50.498;8.474;2022-08-20T03:36:34;19.96;74.67
12907;DHT22;6521;50.498;8.474;2022-08-20T03:39:07;19.91;74.92
12907;DHT22;6521;50.498;8.474;2022-08-20T03:41:41;19.91;75.02
12907;DHT22;6521;50.498;8.474;2022-08-20T03:44:12;19.91;75.14
12907;DHT22;6521;50.498;8.474;2022-08-20T03:46:43;19.90;75.17
12907;DHT22;6521;50.498;8.474;2022-08-20T03:49:13;19.90;75.21
12907;DHT22;6521;50.498;8.474;2022-08-20T03:51:46;19.91;75.18
12907;DHT22;6521;50.498;8.474;2022-08-20T03:54:16;19.91;75.15
12907;DHT22;6521;50.498;8.474;2022-08-20T03:56:47;19.91;75.05
12907;DHT22;6521;50.498;8.474;2022-08-20T03:59:18;19.88;75.27
12907;DHT22;6521;50.498;8.474;2022-08-20T04:01:48;19.87;75.32
12907;DHT22;6521;50.498;8.474;2022-08-20T04:04:19;19.84;75.55
12907;DHT22;6521;50.498;8.474;2022-08-20T04:06:51;19.83;75.59
12907;DHT22;6521;50.498;8.474;2022-08-20T04:09:22;19.79;75.75
12907;DHT22;6521;50.498;8.474;2022-08-20T04:11:52;19.76;75.97
12907;DHT22;6521;50.498;8.474;2022-08-20T04:14:29;19.73;76.07
12907;DHT22;6521;50.498;8.474;2022-08-20T04:17:10;19.70;76.33
12907;DHT22;6521;50.498;8.474;2022-08-20T04:19:42;19.66;76.51
12907;DHT22;6521;50.498;8.474;2022-08-20T04:22:13;19.62;76.77
12907;DHT22;6521;50.498;8.474;2022-08-20T04:24:44;19.66;76.70
12907;DHT22;6521;50.498;8.474;2022-08-20T04:27:14;19.66;76.95
12907;DHT22;6521;50.498;8.474;2022-08-20T04:29:45;19.65;77.28
12907;DHT22;6521;50.498;8.474;2022-08-20T04:32:16;19.66;77.43
12907;DHT22;6521;50.498;8.474;2022-08-20T04:34:47;19.65;77.54
12907;DHT22;6521;50.498;8.474;2022-08-20T04:37:21;19.66;77.40
12907;DHT22;6521;50.498;8.474;2022-08-20T04:39:52;19.70;77.53
12907;DHT22;6521;50.498;8.474;2022-08-20T04:42:41;19.71;77.61
12907;DHT22;6521;50.498;8.474;2022-08-20T04:45:12;19.74;77.62
12907;DHT22;6521;50.498;8.474;2022-08-20T04:47:43;19.76;77.57
12907;DHT22;6521;50.498;8.474;2022-08-20T04:50:15;19.74;77.58
12907;DHT22;6521;50.498;8.474;2022-08-20T04:52:46;19.73;77.76
12907;DHT22;6521;50.498;8.474;2022-08-20T04:55:19;19.74;77.65
12907;DHT22;6521;50.498;8.474;2022-08-20T04:57:50;19.79;77.58
12907;DHT22;6521;50.498;8.474;2022-08-20T05:00:22;19.71;77.70
12907;DHT22;6521;50.498;8.474;2022-08-20T05:02:53;19.79;77.69
12907;DHT22;6521;50.498;8.474;2022-08-20T05:05:24;19.74;77.76
12907;DHT22;6521;50.498;8.474;2022-08-20T05:07:55;19.77;77.62
12907;DHT22;6521;50.498;8.474;2022-08-20T05:10:27;19.80;77.62
12907;DHT22;6521;50.498;8.474;2022-08-20T05:12:58;19.80;77.60
12907;DHT22;6521;50.498;8.474;2022-08-20T05:15:29;19.77;77.63
12907;DHT22;6521;50.498;8.474;2022-08-20T05:18:01;19.81;77.70
12907;DHT22;6521;50.498;8.474;2022-08-20T05:20:35;19.81;77.65
12907;DHT22;6521;50.498;8.474;2022-08-20T05:23:10;19.84;77.65
12907;DHT22;6521;50.498;8.474;2022-08-20T05:25:44;19.79;77.64
12907;DHT22;6521;50.498;8.474;2022-08-20T05:28:24;19.79;77.83
12907;DHT22;6521;50.498;8.474;2022-08-20T05:30:54;19.80;77.57
12907;DHT22;6521;50.498;8.474;2022-08-20T05:33:27;19.81;77.61
12907;DHT22;6521;50.498;8.474;2022-08-20T05:35:58;19.77;77.52
12907;DHT22;6521;50.498;8.474;2022-08-20T05:38:28;19.74;77.76
12907;DHT22;6521;50.498;8.474;2022-08-20T05:41:00;19.74;77.63
12907;DHT22;6521;50.498;8.474;2022-08-20T05:43:32;19.73;77.72
12907;DHT22;6521;50.498;8.474;2022-08-20T05:46:03;19.67;77.81
12907;DHT22;6521;50.498;8.474;2022-08-20T05:48:34;19.65;77.89
12907;DHT22;6521;50.498;8.474;2022-08-20T05:51:05;19.62;77.93
12907;DHT22;6521;50.498;8.474;2022-08-20T05:53:36;19.58;78.26
12907;DHT22;6521;50.498;8.474;2022-08-20T05:56:07;19.63;77.85
12907;DHT22;6521;50.498;8.474;2022-08-20T05:58:40;19.56;78.20
12907;DHT22;6521;50.498;8.474;2022-08-20T06:01:11;19.66;78.10
12907;DHT22;6521;50.498;8.474;2022-08-20T06:03:42;19.63;78.10
12907;DHT22;6521;50.498;8.474;2022-08-20T06:06:31;19.59;78.34
12907;DHT22;6521;50.498;8.474;2022-08-20T06:09:03;19.65;78.34
12907;DHT22;6521;50.498;8.474;2022-08-20T06:11:33;19.76;78.16
12907;DHT22;6521;50.498;8.474;2022-08-20T06:14:04;19.87;77.98
12907;DHT22;6521;50.498;8.474;2022-08-20T06:16:35;20.00;77.35
12907;DHT22;6521;50.498;8.474;2022-08-20T06:19:06;20.08;76.75
12907;DHT22;6521;50.498;8.474;2022-08-20T06:21:36;20.11;76.46
12907;DHT22;6521;50.498;8.474;2022-08-20T06:24:07;20.16;76.05
12907;DHT22;6521;50.498;8.474;2022-08-20T06:26:38;20.22;75.70
12907;DHT22;6521;50.498;8.474;2022-08-20T06:29:09;20.29;75.54
12907;DHT22;6521;50.498;8.474;2022-08-20T06:31:39;20.38;75.15
12907;DHT22;6521;50.498;8.474;2022-08-20T06:34:10;20.45;74.97
12907;DHT22;6521;50.498;8.474;2022-08-20T06:36:41;20.49;74.41
12907;DHT22;6521;50.498;8.474;2022-08-20T06:39:15;20.56;74.10
12907;DHT22;6521;50.498;8.474;2022-08-20T06:41:46;20.62;73.08
12907;DHT22;6521;50.498;8.474;2022-08-20T06:44:18;20.65;72.65
12907;DHT22;6521;50.498;8.474;2022-08-20T06:46:49;20.71;73.11
12907;DHT22;6521;50.498;8.474;2022-08-20T06:49:20;20.77;71.38
12907;DHT22;6521;50.498;8.474;2022-08-20T06:51:50;20.86;70.21
12907;DHT22;6521;50.498;8.474;2022-08-20T06:54:21;20.87;69.77
12907;DHT22;6521;50.498;8.474;2022-08-20T06:56:52;20.90;70.13
12907;DHT22;6521;50.498;8.474;2022-08-20T06:59:24;20.93;70.43
12907;DHT22;6521;50.498;8.474;2022-08-20T07:01:54;21.04;69.86
12907;DHT22;6521;50.498;8.474;2022-08-20T07:04:26;21.20;68.51
12907;DHT22;6521;50.498;8.474;2022-08-20T07:06:57;21.40;68.45
12907;DHT22;6521;50.498;8.474;2022-08-20T07:09:28;21.54;67.42
12907;DHT22;6521;50.498;8.474;2022-08-20T07:11:59;21.66;66.97
12907;DHT22;6521;50.498;8.474;2022-08-20T07:14:30;21.77;66.67
12907;DHT22;6521;50.498;8.474;2022-08-20T07:17:02;21.91;65.93
12907;DHT22;6521;50.498;8.474;2022-08-20T07:19:33;22.03;65.39
12907;DHT22;6521;50.498;8.474;2022-08-20T07:22:05;22.17;64.49
12907;DHT22;6521;50.498;8.474;2022-08-20T07:24:36;22.35;64.16
12907;DHT22;6521;50.498;8.474;2022-08-20T07:27:07;22.49;63.32
12907;DHT22;6521;50.498;8.474;2022-08-20T07:29:38;22.56;63.65
12907;DHT22;6521;50.498;8.474;2022-08-20T07:32:27;22.65;63.46
12907;DHT22;6521;50.498;8.474;2022-08-20T07:35:06;22.70;62.77
12907;DHT22;6521;50.498;8.474;2022-08-20T07:37:39;22.65;62.80
12907;DHT22;6521;50.498;8.474;2022-08-20T07:40:14;22.60;62.96
12907;DHT22;6521;50.498;8.474;2022-08-20T07:42:45;22.56;63.76
12907;DHT22;6521;50.498;8.474;2022-08-20T07:45:17;22.54;63.76
12907;DHT22;6521;50.498;8.474;2022-08-20T07:47:50;22.44;64.29
12907;DHT22;6521;50.498;8.474;2022-08-20T07:50:24;22.39;64.27
12907;DHT22;6521;50.498;8.474;2022-08-20T07:52:55;22.29;64.76
12907;DHT22;6521;50.498;8.474;2022-08-20T07:55:26;22.24;64.82
12907;DHT22;6521;50.498;8.474;2022-08-20T07:58:01;22.30;65.24
12907;DHT22;6521;50.498;8.474;2022-08-20T08:00:36;22.28;65.36
12907;DHT22;6521;50.498;8.474;2022-08-20T08:03:07;22.32;65.66
12907;DHT22;6521;50.498;8.474;2022-08-20T08:05:40;22.35;65.89
12907;DHT22;6521;50.498;8.474;2022-08-20T08:08:16;22.42;66.09
12907;DHT22;6521;50.498;8.474;2022-08-20T08:10:49;22.49;66.18
12907;DHT22;6521;50.498;8.474;2022-08-20T08:13:34;22.43;65.88
12907;DHT22;6521;50.498;8.474;2022-08-20T08:16:08;22.47;65.76
12907;DHT22;6521;50.498;8.474;2022-08-20T08:18:44;22.37;66.45
12907;DHT22;6521;50.498;8.474;2022-08-20T08:21:16;22.20;69.30
12907;DHT22;6521;50.498;8.474;2022-08-20T08:23:51;22.05;70.67
12907;DHT22;6521;50.498;8.474;2022-08-20T08:26:22;21.96;71.82
12907;DHT22;6521;50.498;8.474;2022-08-20T08:28:53;21.81;72.75
12907;DHT22;6521;50.498;8.474;2022-08-20T08:31:24;21.75;73.61
12907;DHT22;6521;50.498;8.474;2022-08-20T08:33:55;21.74;73.53
12907;DHT22;6521;50.498;8.474;2022-08-20T08:36:26;21.71;74.14
12907;DHT22;6521;50.498;8.474;2022-08-20T08:38:56;21.66;74.47
12907;DHT22;6521;50.498;8.474;2022-08-20T08:41:36;21.65;74.46
12907;DHT22;6521;50.498;8.474;2022-08-20T08:44:25;21.57;75.12
12907;DHT22;6521;50.498;8.474;2022-08-20T08:47:00;21.10;76.16
12907;DHT22;6521;50.498;8.474;2022-08-20T08:49:33;20.87;77.31
12907;DHT22;6521;50.498;8.474;2022-08-20T08:52:09;20.49;79.06
12907;DHT22;6521;50.498;8.474;2022-08-20T08:54:45;20.24;80.40
12907;DHT22;6521;50.498;8.474;2022-08-20T08:57:17;20.16;81.70
12907;DHT22;6521;50.498;8.474;2022-08-20T08:59:59;20.04;83.06
12907;DHT22;6521;50.498;8.474;2022-08-20T09:02:30;19.97;82.94
12907;DHT22;6521;50.498;8.474;2022-08-20T09:05:10;19.93;83.45
12907;DHT22;6521;50.498;8.474;2022-08-20T09:07:46;19.91;83.45
12907;DHT22;6521;50.498;8.474;2022-08-20T09:10:17;19.97;83.50
12907;DHT22;6521;50.498;8.474;2022-08-20T09:12:48;20.03;83.87
12907;DHT22;6521;50.498;8.474;2022-08-20T09:15:19;20.18;84.14
12907;DHT22;6521;50.498;8.474;2022-08-20T09:17:50;20.41;84.15
12907;DHT22;6521;50.498;8.474;2022-08-20T09:20:21;20.51;82.55
12907;DHT22;6521;50.498;8.474;2022-08-20T09:22:52;20.58;80.82
12907;DHT22;6521;50.498;8.474;2022-08-20T09:25:23;20.58;81.27
12907;DHT22;6521;50.498;8.474;2022-08-20T09:27:53;20.65;81.62
12907;DHT22;6521;50.498;8.474;2022-08-20T09:30:24;20.77;80.90
12907;DHT22;6521;50.498;8.474;2022-08-20T09:32:58;20.89;80.08
12907;DHT22;6521;50.498;8.474;2022-08-20T09:35:28;20.90;80.87
12907;DHT22;6521;50.498;8.474;2022-08-20T09:38:00;21.06;80.40
12907;DHT22;6521;50.498;8.474;2022-08-20T09:40:30;21.23;80.77
12907;DHT22;6521;50.498;8.474;2022-08-20T09:43:04;21.31;80.87
12907;DHT22;6521;50.498;8.474;2022-08-20T09:45:35;21.41;78.10
12907;DHT22;6521;50.498;8.474;2022-08-20T09:48:06;21.47;78.56
12907;DHT22;6521;50.498;8.474;2022-08-20T09:50:40;21.57;78.70
12907;DHT22;6521;50.498;8.474;2022-08-20T09:53:13;21.62;78.15
12907;DHT22;6521;50.498;8.474;2022-08-20T09:55:48;21.84;78.66
12907;DHT22;6521;50.498;8.474;2022-08-20T09:58:36;22.06;75.02
12907;DHT22;6521;50.498;8.474;2022-08-20T10:01:12;22.20;75.12
12907;DHT22;6521;50.498;8.474;2022-08-20T10:03:45;22.30;74.33
12907;DHT22;6521;50.498;8.474;2022-08-20T10:06:19;22.42;72.74
12907;DHT22;6521;50.498;8.474;2022-08-20T10:08:50;22.30;72.58
12907;DHT22;6521;50.498;8.474;2022-08-20T10:11:20;22.30;73.38
12907;DHT22;6521;50.498;8.474;2022-08-20T10:13:51;22.37;71.58
12907;DHT22;6521;50.498;8.474;2022-08-20T10:16:22;22.37;71.00
12907;DHT22;6521;50.498;8.474;2022-08-20T10:18:53;22.47;71.46
12907;DHT22;6521;50.498;8.474;2022-08-20T10:21:23;22.39;69.43
12907;DHT22;6521;50.498;8.474;2022-08-20T10:23:54;22.46;70.96
12907;DHT22;6521;50.498;8.474;2022-08-20T10:26:25;22.98;67.52
12907;DHT22;6521;50.498;8.474;2022-08-20T10:28:55;23.59;66.01
12907;DHT22;6521;50.498;8.474;2022-08-20T10:31:26;23.90;66.58
12907;DHT22;6521;50.498;8.474;2022-08-20T10:33:57;24.11;64.60
12907;DHT22;6521;50.498;8.474;2022-08-20T10:36:27;24.13;63.63
12907;DHT22;6521;50.498;8.474;2022-08-20T10:38:58;24.32;63.71
12907;DHT22;6521;50.498;8.474;2022-08-20T10:41:29;24.93;64.22
12907;DHT22;6521;50.498;8.474;2022-08-20T10:44:00;25.82;61.32
12907;DHT22;6521;50.498;8.474;2022-08-20T10:46:30;26.52;57.38
12907;DHT22;6521;50.498;8.474;2022-08-20T10:49:01;27.08;55.07
12907;DHT22;6521;50.498;8.474;2022-08-20T10:51:32;26.71;53.02
12907;DHT22;6521;50.498;8.474;2022-08-20T10:54:03;27.01;54.21
12907;DHT22;6521;50.498;8.474;2022-08-20T10:56:33;27.32;49.48
12907;DHT22;6521;50.498;8.474;2022-08-20T10:59:04;27.37;50.80
12907;DHT22;6521;50.498;8.474;2022-08-20T11:01:34;27.14;52.39
12907;DHT22;6521;50.498;8.474;2022-08-20T11:04:05;27.39;48.47
12907;DHT22;6521;50.498;8.474;2022-08-20T11:06:36;27.31;46.36
12907;DHT22;6521;50.498;8.474;2022-08-20T11:09:06;27.66;46.67
12907;DHT22;6521;50.498;8.474;2022-08-20T11:11:38;28.14;48.48
12907;DHT22;6521;50.498;8.474;2022-08-20T11:14:09;28.31;44.55
12907;DHT22;6521;50.498;8.474;2022-08-20T11:16:41;28.03;47.02
12907;DHT22;6521;50.498;8.474;2022-08-20T11:19:12;27.25;44.52
12907;DHT22;6521;50.498;8.474;2022-08-20T11:21:43;26.84;46.63
12907;DHT22;6521;50.498;8.474;2022-08-20T11:24:15;27.10;46.07
12907;DHT22;6521;50.498;8.474;2022-08-20T11:26:47;27.35;46.63
12907;DHT22;6521;50.498;8.474;2022-08-20T11:29:20;27.90;46.36
12907;DHT22;6521;50.498;8.474;2022-08-20T11:31:52;28.40;45.81
12907;DHT22;6521;50.498;8.474;2022-08-20T11:34:23;28.71;42.33
12907;DHT22;6521;50.498;8.474;2022-08-20T11:36:54;28.83;44.08
12907;DHT22;6521;50.498;8.474;2022-08-20T11:39:26;28.52;43.34
12907;DHT22;6521;50.498;8.474;2022-08-20T11:41:57;28.55;42.90
12907;DHT22;6521;50.498;8.474;2022-08-20T11:44:28;27.82;43.85
12907;DHT22;6521;50.498;8.474;2022-08-20T11:47:00;27.00;45.62
12907;DHT22;6521;50.498;8.474;2022-08-20T11:49:35;26.63;47.42
12907;DHT22;6521;50.498;8.474;2022-08-20T11:52:06;26.64;46.84
12907;DHT22;6521;50.498;8.474;2022-08-20T11:54:37;26.60;45.92
12907;DHT22;6521;50.498;8.474;2022-08-20T11:57:10;26.92;44.50
12907;DHT22;6521;50.498;8.474;2022-08-20T11:59:40;26.57;44.73
12907;DHT22;6521;50.498;8.474;2022-08-20T12:02:11;26.59;46.02
12907;DHT22;6521;50.498;8.474;2022-08-20T12:04:43;27.11;45.07
12907;DHT22;6521;50.498;8.474;2022-08-20T12:07:19;27.83;43.21
12907;DHT22;6521;50.498;8.474;2022-08-20T12:09:50;28.22;42.16
12907;DHT22;6521;50.498;8.474;2022-08-20T12:12:22;28.71;40.53
12907;DHT22;6521;50.498;8.474;2022-08-20T12:14:54;29.06;40.05
12907;DHT22;6521;50.498;8.474;2022-08-20T12:17:27;28.83;38.87
12907;DHT22;6521;50.498;8.474;2022-08-20T12:20:00;28.47;39.14
12907;DHT22;6521;50.498;8.474;2022-08-20T12:22:31;28.75;39.95
12907;DHT22;6521;50.498;8.474;2022-08-20T12:25:04;29.06;39.19
12907;DHT22;6521;50.498;8.474;2022-08-20T12:27:36;29.22;37.60
12907;DHT22;6521;50.498;8.474;2022-08-20T12:30:12;29.20;36.62
12907;DHT22;6521;50.498;8.474;2022-08-20T12:32:43;29.34;36.00
12907;DHT22;6521;50.498;8.474;2022-08-20T12:35:15;29.47;37.47
12907;DHT22;6521;50.498;8.474;2022-08-20T12:37:47;29.43;37.92
12907;DHT22;6521;50.498;8.474;2022-08-20T12:40:24;29.46;35.33
12907;DHT22;6521;50.498;8.474;2022-08-20T12:42:55;29.57;35.88
12907;DHT22;6521;50.498;8.474;2022-08-20T12:45:26;29.74;34.12
12907;DHT22;6521;50.498;8.474;2022-08-20T12:48:04;30.22;33.77
12907;DHT22;6521;50.498;8.474;2022-08-20T12:50:36;30.43;33.94
12907;DHT22;6521;50.498;8.474;2022-08-20T12:53:08;29.80;33.56
12907;DHT22;6521;50.498;8.474;2022-08-20T12:55:39;29.42;35.06
12907;DHT22;6521;50.498;8.474;2022-08-20T12:58:10;29.24;35.32
12907;DHT22;6521;50.498;8.474;2022-08-20T13:00:43;29.33;34.33
12907;DHT22;6521;50.498;8.474;2022-08-20T13:03:14;29.60;32.90
12907;DHT22;6521;50.498;8.474;2022-08-20T13:05:45;29.49;35.04
12907;DHT22;6521;50.498;8.474;2022-08-20T13:08:16;29.97;34.57
12907;DHT22;6521;50.498;8.474;2022-08-20T13:10:48;29.95;32.93
12907;DHT22;6521;50.498;8.474;2022-08-20T13:13:19;30.00;33.57
12907;DHT22;6521;50.498;8.474;2022-08-20T13:15:50;30.00;31.17
12907;DHT22;6521;50.498;8.474;2022-08-20T13:18:21;29.75;32.22
12907;DHT22;6521;50.498;8.474;2022-08-20T13:20:51;29.47;33.11
12907;DHT22;6521;50.498;8.474;2022-08-20T13:23:22;29.53;32.07
12907;DHT22;6521;50.498;8.474;2022-08-20T13:25:53;29.61;32.98
12907;DHT22;6521;50.498;8.474;2022-08-20T13:28:23;29.84;32.29
12907;DHT22;6521;50.498;8.474;2022-08-20T13:30:54;30.05;32.39
12907;DHT22;6521;50.498;8.474;2022-08-20T13:33:24;30.42;31.25
12907;DHT22;6521;50.498;8.474;2022-08-20T13:35:56;30.25;30.40
12907;DHT22;6521;50.498;8.474;2022-08-20T13:38:26;30.15;30.31
12907;DHT22;6521;50.498;8.474;2022-08-20T13:40:57;29.80;30.87
12907;DHT22;6521;50.498;8.474;2022-08-20T13:43:28;29.94;31.05
12907;DHT22;6521;50.498;8.474;2022-08-20T13:45:58;30.06;31.27
12907;DHT22;6521;50.498;8.474;2022-08-20T13:48:30;30.04;31.37
12907;DHT22;6521;50.498;8.474;2022-08-20T13:51:01;30.13;30.46
12907;DHT22;6521;50.498;8.474;2022-08-20T13:53:32;30.23;30.84
12907;DHT22;6521;50.498;8.474;2022-08-20T13:56:03;30.13;31.38
12907;DHT22;6521;50.498;8.474;2022-08-20T13:58:34;30.02;31.97
12907;DHT22;6521;50.498;8.474;2022-08-20T14:01:06;29.88;32.35
12907;DHT22;6521;50.498;8.474;2022-08-20T14:03:36;29.78;32.19
12907;DHT22;6521;50.498;8.474;2022-08-20T14:06:07;29.54;32.46
12907;DHT22;6521;50.498;8.474;2022-08-20T14:08:39;29.73;32.96
12907;DHT22;6521;50.498;8.474;2022-08-20T14:11:09;29.85;31.69
12907;DHT22;6521;50.498;8.474;2022-08-20T14:13:40;29.91;32.44
12907;DHT22;6521;50.498;8.474;2022-08-20T14:16:11;30.05;31.49
12907;DHT22;6521;50.498;8.474;2022-08-20T14:18:41;30.16;30.95
12907;DHT22;6521;50.498;8.474;2022-08-20T14:21:12;30.15;31.70
12907;DHT22;6521;50.498;8.474;2022-08-20T14:23:42;30.35;30.45
12907;DHT22;6521;50.498;8.474;2022-08-20T14:26:13;30.25;30.29
12907;DHT22;6521;50.498;8.474;2022-08-20T14:28:44;29.95;29.41
12907;DHT22;6521;50.498;8.474;2022-08-20T14:31:14;29.80;29.83
12907;DHT22;6521;50.498;8.474;2022-08-20T14:33:45;29.60;30.77
12907;DHT22;6521;50.498;8.474;2022-08-20T14:36:16;29.51;31.34
12907;DHT22;6521;50.498;8.474;2022-08-20T14:38:46;29.42;31.30
12907;DHT22;6521;50.498;8.474;2022-08-20T14:41:19;29.42;31.27
12907;DHT22;6521;50.498;8.474;2022-08-20T14:43:49;29.50;30.86
12907;DHT22;6521;50.498;8.474;2022-08-20T14:46:20;29.30;30.99
12907;DHT22;6521;50.498;8.474;2022-08-20T14:48:51;29.38;31.71
12907;DHT22;6521;50.498;8.474;2022-08-20T14:51:21;29.58;32.20
12907;DHT22;6521;50.498;8.474;2022-08-20T14:53:52;29.64;31.91
12907;DHT22;6521;50.498;8.474;2022-08-20T14:56:23;29.80;31.03
12907;DHT22;6521;50.498;8.474;2022-08-20T14:58:53;29.67;31.08
12907;DHT22;6521;50.498;8.474;2022-08-20T15:01:24;29.65;31.31
12907;DHT22;6521;50.498;8.474;2022-08-20T15:03:54;29.36;30.81
12907;DHT22;6521;50.498;8.474;2022-08-20T15:06:25;29.17;31.61
12907;DHT22;6521;50.498;8.474;2022-08-20T15:08:56;29.26;31.42
12907;DHT22;6521;50.498;8.474;2022-08-20T15:11:26;29.22;31.45
12907;DHT22;6521;50.498;8.474;2022-08-20T15:13:57;29.15;31.39
12907;DHT22;6521;50.498;8.474;2022-08-20T15:16:27;29.00;30.90
12907;DHT22;6521;50.498;8.474;2022-08-20T15:18:59;28.92;31.42
12907;DHT22;6521;50.498;8.474;2022-08-20T15:21:30;28.95;30.90
12907;DHT22;6521;50.498;8.474;2022-08-20T15:24:00;28.91;31.90
12907;DHT22;6521;50.498;8.474;2022-08-20T15:26:31;29.00;31.08
12907;DHT22;6521;50.498;8.474;2022-08-20T15:29:02;28.99;30.71
12907;DHT22;6521;50.498;8.474;2022-08-20T15:31:32;28.92;31.29
12907;DHT22;6521;50.498;8.474;2022-08-20T15:34:03;28.85;30.87
12907;DHT22;6521;50.498;8.474;2022-08-20T15:36:34;28.54;31.53
12907;DHT22;6521;50.498;8.474;2022-08-20T15:39:04;28.61;31.90
12907;DHT22;6521;50.498;8.474;2022-08-20T15:41:35;28.58;31.69
12907;DHT22;6521;50.498;8.474;2022-08-20T15:44:05;28.33;31.55
12907;DHT22;6521;50.498;8.474;2022-08-20T15:46:36;28.08;32.16
12907;DHT22;6521;50.498;8.474;2022-08-20T15:49:10;27.71;32.64
12907;DHT22;6521;50.498;8.474;2022-08-20T15:51:44;27.70;33.17
12907;DHT22;6521;50.498;8.474;2022-08-20T15:54:19;27.76;32.44
12907;DHT22;6521;50.498;8.474;2022-08-20T15:59:44;27.48;33.23
12907;DHT22;6521;50.498;8.474;2022-08-20T16:05:35;27.07;33.27
12907;DHT22;6521;50.498;8.474;2022-08-20T16:08:31;27.10;34.09
12907;DHT22;6521;50.498;8.474;2022-08-20T16:14:09;26.90;34.97
12907;DHT22;6521;50.498;8.474;2022-08-20T16:16:50;26.74;35.21
12907;DHT22;6521;50.498;8.474;2022-08-20T16:19:35;26.65;34.97
12907;DHT22;6521;50.498;8.474;2022-08-20T16:22:13;26.53;35.34
12907;DHT22;6521;50.498;8.474;2022-08-20T16:24:45;26.54;35.50
12907;DHT22;6521;50.498;8.474;2022-08-20T16:30:45;26.54;34.68
12907;DHT22;6521;50.498;8.474;2022-08-20T16:36:18;26.31;34.59
12907;DHT22;6521;50.498;8.474;2022-08-20T16:38:58;26.33;34.97
12907;DHT22;6521;50.498;8.474;2022-08-20T16:41:42;26.29;35.01